Terminal Aerodrome Forecast
Issued by NWS

Home | Current Version | Previous Version | Text Only | Print | Product List | Glossary On
Versions: 1 2 3 4 5 6 7 8 9 10 11 12 13
922
FTUS42 KMLB 221905 AAA
TAFTIX
TAF AMD
KTIX 221905Z 2219/2318 13011KT P6SM VCSH SCT025 SCT040
     FM222100 11011KT P6SM SCT030 SCT050 BKN250
     FM231500 16009G15KT P6SM SCT025 OVC050=

USA.gov is the U.S. government's official web portal to all federal, state and local government web resources and services.